Time;durP1;ratioP1;P1;durP2;ratioP2;P2;SDS_P1;SDS_P2;PMS_P1;PMS_P2;Temp;Humidity;BMP_temperature;BMP_pressure;BME280_temperature;BME280_humidity;BME280_pressure;Samples;Min_cycle;Max_cycle;Signal;HPM_P1;HPM_P2
2023/04/11 00:02:05;;;;;;;12.80;2.67;;;11.00;96.10;;;;;;5008395;28;20061;-74
2023/04/11 00:04:33;;;;;;;11.65;3.58;;;11.00;96.20;;;;;;5008603;28;20057;-74
2023/04/11 00:07:01;;;;;;;21.95;4.03;;;10.90;96.60;;;;;;5008987;28;20399;-74
2023/04/11 00:09:26;;;;;;;21.08;4.55;;;11.00;97.00;;;;;;5009581;28;20034;-73
2023/04/11 00:11:52;;;;;;;24.38;4.85;;;11.00;97.40;;;;;;5010102;28;20081;-74
2023/04/11 00:14:18;;;;;;;27.92;6.90;;;10.90;98.00;;;;;;5009697;28;20026;-73
2023/04/11 00:16:44;;;;;;;18.30;4.05;;;10.90;98.40;;;;;;5009448;28;20476;-74
2023/04/11 00:19:10;;;;;;;22.58;5.60;;;10.90;98.80;;;;;;5008552;28;20069;-73
2023/04/11 00:21:38;;;;;;;25.40;5.43;;;10.90;99.10;;;;;;5010478;28;20053;-72
2023/04/11 00:24:06;;;;;;;36.30;8.07;;;11.00;99.30;;;;;;4990183;28;20031;-73
2023/04/11 00:26:32;;;;;;;30.88;5.60;;;11.00;99.60;;;;;;5008543;28;20018;-74
2023/04/11 00:28:57;;;;;;;30.80;6.47;;;11.00;99.80;;;;;;5009029;28;20037;-72
2023/04/11 00:31:23;;;;;;;28.88;6.30;;;11.00;99.80;;;;;;5009845;28;20065;-73
2023/04/11 00:33:49;;;;;;;38.45;8.60;;;11.10;99.80;;;;;;5010367;28;20144;-73
2023/04/11 00:36:15;;;;;;;25.95;6.43;;;11.00;99.80;;;;;;5009323;28;20022;-73
2023/04/11 00:38:41;;;;;;;31.77;6.85;;;11.10;99.90;;;;;;5009073;28;20472;-73
2023/04/11 00:41:07;;;;;;;23.40;6.13;;;11.10;99.80;;;;;;5012031;28;20075;-72
2023/04/11 00:43:33;;;;;;;23.02;6.35;;;11.10;99.70;;;;;;5008292;28;20338;-73
2023/04/11 00:45:59;;;;;;;28.80;7.28;;;11.10;99.70;;;;;;5008123;28;20112;-74
2023/04/11 00:48:27;;;;;;;28.35;6.85;;;11.00;99.80;;;;;;5009956;28;20096;-73
2023/04/11 00:50:53;;;;;;;29.85;6.57;;;11.00;99.90;;;;;;5009522;28;20113;-73
2023/04/11 00:53:20;;;;;;;28.17;6.25;;;11.00;99.90;;;;;;5009877;28;20374;-73
2023/04/11 00:55:46;;;;;;;26.63;7.65;;;11.00;99.80;;;;;;5013183;28;20034;-74
2023/04/11 00:58:15;;;;;;;35.25;7.10;;;10.90;99.90;;;;;;5013997;28;20534;-73
2023/04/11 01:00:41;;;;;;;24.02;5.80;;;10.90;99.90;;;;;;5012278;28;20030;-73
2023/04/11 01:03:07;;;;;;;29.15;6.60;;;10.90;99.90;;;;;;5012382;28;20096;-72
2023/04/11 01:05:34;;;;;;;35.63;7.75;;;10.80;99.90;;;;;;5012095;28;20030;-74
2023/04/11 01:08:01;;;;;;;35.30;8.27;;;10.80;99.90;;;;;;5013271;28;20030;-74
2023/04/11 01:10:29;;;;;;;36.28;7.75;;;10.80;99.90;;;;;;5013905;28;20034;-73
2023/04/11 01:12:57;;;;;;;31.02;7.10;;;10.80;99.90;;;;;;5012520;28;20022;-73
2023/04/11 01:15:23;;;;;;;31.92;6.78;;;10.70;99.90;;;;;;5013801;28;20030;-72
2023/04/11 01:17:51;;;;;;;34.38;7.32;;;10.70;99.90;;;;;;4994820;28;20601;-73
2023/04/11 01:20:17;;;;;;;32.65;7.93;;;10.60;99.90;;;;;;5013558;28;20026;-73
2023/04/11 01:22:43;;;;;;;30.67;8.25;;;10.60;99.90;;;;;;5013212;28;20041;-73
2023/04/11 01:25:09;;;;;;;35.95;7.22;;;10.50;99.90;;;;;;5011976;28;20647;-74
2023/04/11 01:27:36;;;;;;;38.25;7.60;;;10.60;99.90;;;;;;5012264;28;20193;-74
2023/04/11 01:30:02;;;;;;;32.08;5.68;;;10.60;99.90;;;;;;5013055;28;20487;-73
2023/04/11 01:32:28;;;;;;;32.40;7.13;;;10.60;99.90;;;;;;5011476;28;20038;-74
2023/04/11 01:34:56;;;;;;;43.00;7.75;;;10.60;99.90;;;;;;5013183;28;20469;-72
2023/04/11 01:37:22;;;;;;;35.47;6.80;;;10.50;99.90;;;;;;5011968;28;20495;-73
2023/04/11 01:39:48;;;;;;;31.70;5.50;;;10.50;99.90;;;;;;5012734;28;20057;-74
2023/04/11 01:42:14;;;;;;;36.60;7.00;;;10.50;99.90;;;;;;5012615;28;20486;-74
2023/04/11 01:44:41;;;;;;;41.70;7.30;;;10.50;99.90;;;;;;5012733;28;20025;-73
2023/04/11 01:47:06;;;;;;;30.10;5.05;;;10.40;99.90;;;;;;5012251;28;20551;-73
2023/04/11 01:49:32;;;;;;;39.85;7.25;;;10.50;99.90;;;;;;5011005;28;20073;-73
2023/04/11 01:51:58;;;;;;;33.83;7.40;;;10.40;99.90;;;;;;5012103;28;20092;-72
2023/04/11 01:54:23;;;;;;;24.83;5.60;;;10.40;99.90;;;;;;5012521;28;20033;-73
2023/04/11 01:56:49;;;;;;;34.83;7.95;;;10.30;99.90;;;;;;5012426;28;20026;-72
2023/04/11 01:59:15;;;;;;;44.50;7.07;;;10.30;99.90;;;;;;5012101;28;20030;-72
2023/04/11 02:01:43;;;;;;;33.92;6.22;;;10.30;99.90;;;;;;5010790;28;20046;-73
2023/04/11 02:04:09;;;;;;;24.33;5.55;;;10.20;99.90;;;;;;5012874;28;20022;-74
2023/04/11 02:06:34;;;;;;;34.28;6.55;;;10.30;99.90;;;;;;5011636;28;20072;-73
2023/04/11 02:09:00;;;;;;;33.33;7.30;;;10.20;99.90;;;;;;5010709;28;20126;-74
2023/04/11 02:11:26;;;;;;;38.72;7.65;;;10.20;99.90;;;;;;5011091;28;20072;-73
2023/04/11 02:13:51;;;;;;;30.05;6.20;;;10.20;99.90;;;;;;5013317;28;20484;-74
2023/04/11 02:16:17;;;;;;;34.83;6.75;;;10.20;99.90;;;;;;5011848;28;20072;-73
2023/04/11 02:18:44;;;;;;;34.90;6.32;;;10.10;99.90;;;;;;5012731;28;20088;-72
2023/04/11 02:21:10;;;;;;;35.45;7.30;;;10.10;99.90;;;;;;5012439;28;20036;-72
2023/04/11 02:23:36;;;;;;;46.97;7.90;;;10.10;99.90;;;;;;5012234;28;20022;-73
2023/04/11 02:26:02;;;;;;;28.27;6.03;;;10.00;99.90;;;;;;5016471;28;20113;-72
2023/04/11 02:28:28;;;;;;;41.22;7.78;;;10.00;99.90;;;;;;5017727;28;20057;-74
2023/04/11 02:30:54;;;;;;;30.58;6.38;;;10.00;99.90;;;;;;5013956;28;20505;-73
2023/04/11 02:33:20;;;;;;;41.00;7.97;;;10.10;99.90;;;;;;5012844;28;20022;-74
2023/04/11 02:35:46;;;;;;;31.38;5.70;;;10.00;99.90;;;;;;5011043;28;20026;-73
2023/04/11 02:38:11;;;;;;;25.25;5.32;;;10.00;99.90;;;;;;5010994;28;20571;-74
2023/04/11 02:40:37;;;;;;;26.65;5.10;;;10.00;99.90;;;;;;5019533;28;20108;-73
2023/04/11 02:43:03;;;;;;;33.10;5.45;;;10.10;99.90;;;;;;5011347;28;20036;-72
2023/04/11 02:45:28;;;;;;;22.15;5.07;;;10.00;99.90;;;;;;5010136;28;20029;-74
2023/04/11 02:47:54;;;;;;;22.95;4.05;;;10.00;99.90;;;;;;5009169;28;20483;-73
2023/04/11 02:50:19;;;;;;;19.77;4.85;;;9.90;99.60;;;;;;5011020;28;20037;-73
2023/04/11 02:52:48;;;;;;;16.52;3.85;;;9.90;99.10;;;;;;5010972;28;20018;-74
2023/04/11 02:55:13;;;;;;;21.75;4.35;;;9.90;99.00;;;;;;5010864;28;20021;-72
2023/04/11 02:57:39;;;;;;;15.48;4.57;;;10.00;99.10;;;;;;5011038;28;20041;-74
2023/04/11 03:00:08;;;;;;;26.73;4.22;;;10.00;98.90;;;;;;5009551;28;20030;-72
2023/04/11 03:02:34;;;;;;;24.15;3.85;;;10.10;99.00;;;;;;5026627;28;20049;-75
2023/04/11 03:05:02;;;;;;;19.48;3.85;;;10.10;98.90;;;;;;5012884;28;20021;-73
2023/04/11 03:07:32;;;;;;;17.67;4.40;;;10.00;98.90;;;;;;5030785;28;20027;-74
2023/04/11 03:09:58;;;;;;;20.13;3.90;;;10.10;99.00;;;;;;5030875;28;20048;-74
2023/04/11 03:12:25;;;;;;;17.83;3.15;;;10.10;98.90;;;;;;5030588;28;20028;-73
2023/04/11 03:14:51;;;;;;;17.67;4.40;;;10.10;98.90;;;;;;5013146;28;20049;-73
2023/04/11 03:17:16;;;;;;;21.35;4.07;;;10.10;99.00;;;;;;5030912;28;20036;-73
2023/04/11 03:19:42;;;;;;;26.35;4.38;;;10.20;98.90;;;;;;5031253;28;20025;-73
2023/04/11 03:22:09;;;;;;;18.85;4.28;;;10.20;99.20;;;;;;5012919;28;20030;-74
2023/04/11 03:24:38;;;;;;;16.08;3.15;;;10.20;98.90;;;;;;5030192;28;20026;-73
2023/04/11 03:27:04;;;;;;;15.45;3.47;;;10.20;98.90;;;;;;5011871;28;20072;-73
2023/04/11 03:29:29;;;;;;;26.40;4.80;;;10.20;99.00;;;;;;5030369;28;20108;-73
2023/04/11 03:31:55;;;;;;;26.55;4.18;;;10.20;99.20;;;;;;5012314;28;20184;-73
2023/04/11 03:34:20;;;;;;;22.90;4.45;;;10.20;99.40;;;;;;5012203;28;20033;-74
2023/04/11 03:36:46;;;;;;;36.08;5.82;;;10.20;99.70;;;;;;5011885;28;20029;-73
2023/04/11 03:39:12;;;;;;;31.35;5.85;;;10.10;99.90;;;;;;5030518;28;20030;-73
2023/04/11 03:41:37;;;;;;;22.83;3.78;;;10.10;99.90;;;;;;5040342;28;20031;-74
2023/04/11 03:44:03;;;;;;;21.80;3.80;;;10.10;99.90;;;;;;5029760;28;20483;-72
2023/04/11 03:46:29;;;;;;;27.80;4.90;;;10.00;99.90;;;;;;5029914;28;20028;-71
2023/04/11 03:48:54;;;;;;;39.17;5.72;;;9.90;99.90;;;;;;5029795;28;20030;-72
2023/04/11 03:51:20;;;;;;;24.50;5.13;;;9.90;99.90;;;;;;5012001;28;20033;-73
2023/04/11 03:53:46;;;;;;;25.63;5.00;;;9.90;99.90;;;;;;5012023;28;20067;-73
2023/04/11 03:56:11;;;;;;;21.88;4.55;;;9.90;99.90;;;;;;5029287;28;20026;-73
2023/04/11 03:58:37;;;;;;;21.45;3.35;;;9.80;99.90;;;;;;5029801;28;20025;-73
2023/04/11 04:01:03;;;;;;;25.85;3.58;;;9.80;99.80;;;;;;5029675;28;20061;-74
2023/04/11 04:03:28;;;;;;;21.25;3.45;;;9.70;99.50;;;;;;5029856;28;20487;-73
2023/04/11 04:05:54;;;;;;;17.20;3.22;;;9.80;99.40;;;;;;5029689;28;20029;-73
2023/04/11 04:08:20;;;;;;;23.13;3.95;;;9.80;99.30;;;;;;5014877;28;20566;-74
2023/04/11 04:10:46;;;;;;;21.00;3.75;;;9.80;99.30;;;;;;5009764;28;20042;-73
2023/04/11 04:13:11;;;;;;;12.57;2.47;;;9.80;99.00;;;;;;5023713;28;20083;-73
2023/04/11 04:15:37;;;;;;;11.80;3.15;;;9.80;98.90;;;;;;5029090;28;20511;-72
2023/04/11 04:18:03;;;;;;;13.93;3.10;;;9.80;98.50;;;;;;5029429;28;20025;-73
2023/04/11 04:20:28;;;;;;;13.25;2.42;;;9.90;98.30;;;;;;5029498;28;20479;-73
2023/04/11 04:22:54;;;;;;;12.88;2.83;;;9.90;98.10;;;;;;5029551;28;20030;-73
2023/04/11 04:25:20;;;;;;;18.92;3.53;;;9.90;98.10;;;;;;5029166;28;20033;-73
2023/04/11 04:27:46;;;;;;;12.63;2.80;;;9.90;97.90;;;;;;5029546;28;20381;-73
2023/04/11 04:30:14;;;;;;;15.88;2.60;;;10.00;98.00;;;;;;5029058;28;20522;-72
2023/04/11 04:32:44;;;;;;;14.20;2.85;;;10.00;97.80;;;;;;5029586;28;20491;-74
2023/04/11 04:35:10;;;;;;;18.98;3.38;;;10.00;97.90;;;;;;5029158;28;20075;-74
2023/04/11 04:37:44;;;;;;;13.70;2.35;;;10.00;97.90;;;;;;5029599;28;20032;-73
2023/04/11 04:40:14;;;;;;;20.27;3.53;;;9.90;97.70;;;;;;5012484;28;20057;-73
2023/04/11 04:42:40;;;;;;;7.53;2.53;;;10.00;97.80;;;;;;5029490;28;20033;-74
2023/04/11 04:45:07;;;;;;;16.20;3.15;;;9.90;97.90;;;;;;5029629;28;20022;-74
2023/04/11 04:47:35;;;;;;;11.90;2.25;;;9.90;97.90;;;;;;5030991;28;20017;-73
2023/04/11 04:50:01;;;;;;;14.98;3.47;;;9.90;97.80;;;;;;5031356;28;20060;-73
2023/04/11 04:52:27;;;;;;;12.05;2.20;;;10.00;97.80;;;;;;5030735;28;20115;-73
2023/04/11 04:54:56;;;;;;;11.32;2.35;;;10.00;97.70;;;;;;5028919;28;20104;-73
2023/04/11 04:57:23;;;;;;;12.93;2.50;;;9.90;97.60;;;;;;4991750;28;20018;-74
2023/04/11 04:59:49;;;;;;;14.98;2.58;;;9.90;97.60;;;;;;5005925;28;20036;-74
2023/04/11 05:02:16;;;;;;;15.07;2.40;;;10.00;97.70;;;;;;5010641;28;20046;-74
2023/04/11 05:04:44;;;;;;;20.98;3.20;;;10.00;97.70;;;;;;5011239;28;20433;-73
2023/04/11 05:07:12;;;;;;;16.23;2.92;;;10.00;97.50;;;;;;5029255;28;20033;-75
2023/04/11 05:09:38;;;;;;;12.35;2.40;;;10.00;97.60;;;;;;5028987;28;20415;-74
2023/04/11 05:12:04;;;;;;;8.30;2.03;;;10.00;97.50;;;;;;5029223;28;20021;-74
2023/04/11 05:14:30;;;;;;;13.32;2.30;;;10.00;97.30;;;;;;5028895;28;20029;-74
2023/04/11 05:16:55;;;;;;;11.13;1.80;;;10.00;97.20;;;;;;5028746;28;20093;-73
2023/04/11 05:19:21;;;;;;;14.82;2.47;;;9.90;97.00;;;;;;5028759;28;20503;-73
2023/04/11 05:21:47;;;;;;;15.40;2.60;;;9.90;96.80;;;;;;5011343;28;20026;-72
2023/04/11 05:24:12;;;;;;;11.40;1.90;;;9.90;96.70;;;;;;5028502;28;20025;-74
2023/04/11 05:26:38;;;;;;;14.07;2.45;;;9.80;96.40;;;;;;5028149;28;20029;-73
2023/04/11 05:29:05;;;;;;;11.85;2.22;;;9.80;96.50;;;;;;5010761;28;20021;-73
2023/04/11 05:31:31;;;;;;;11.32;2.40;;;9.80;96.40;;;;;;5010388;28;20064;-74
2023/04/11 05:33:57;;;;;;;8.80;2.28;;;9.70;96.40;;;;;;5028542;28;20053;-73
2023/04/11 05:36:23;;;;;;;13.25;2.35;;;9.80;96.40;;;;;;5028119;28;20026;-74
2023/04/11 05:38:49;;;;;;;16.77;3.05;;;9.70;96.20;;;;;;5028098;28;20029;-73
2023/04/11 05:41:15;;;;;;;15.70;2.53;;;9.70;96.00;;;;;;5028908;28;20029;-73
2023/04/11 05:43:40;;;;;;;14.23;2.50;;;9.70;96.40;;;;;;5031961;28;20484;-73
2023/04/11 05:46:07;;;;;;;11.55;2.03;;;9.80;96.00;;;;;;5031820;28;20071;-74
2023/04/11 05:48:33;;;;;;;11.52;2.90;;;9.80;95.80;;;;;;5031230;28;20503;-74
2023/04/11 05:50:59;;;;;;;14.30;2.67;;;9.80;95.30;;;;;;5031406;28;20044;-73
2023/04/11 05:53:25;;;;;;;14.93;3.03;;;9.80;95.40;;;;;;5031998;28;20378;-74
2023/04/11 05:55:51;;;;;;;17.63;3.05;;;9.90;95.50;;;;;;5031794;28;20036;-74
2023/04/11 05:58:20;;;;;;;12.98;2.67;;;9.90;95.20;;;;;;5031478;28;20029;-73
2023/04/11 06:00:45;;;;;;;16.70;3.60;;;9.80;95.00;;;;;;5031064;28;20018;-74
2023/04/11 06:03:11;;;;;;;6.93;1.23;;;9.80;94.80;;;;;;5031215;28;20025;-74
2023/04/11 06:05:37;;;;;;;12.35;2.30;;;9.80;94.90;;;;;;5031482;28;20121;-74
2023/04/11 06:08:05;;;;;;;8.43;2.30;;;9.80;94.70;;;;;;5031138;28;20029;-74
2023/04/11 06:10:31;;;;;;;15.00;3.20;;;9.90;94.80;;;;;;5031352;28;20044;-72
2023/04/11 06:12:57;;;;;;;8.85;1.90;;;9.90;94.60;;;;;;5030306;28;20022;-73
2023/04/11 06:15:25;;;;;;;17.83;2.95;;;10.00;94.70;;;;;;5031537;28;20550;-73
2023/04/11 06:17:51;;;;;;;12.02;2.47;;;10.00;94.40;;;;;;5030883;28;20053;-73
2023/04/11 06:20:17;;;;;;;10.57;2.85;;;10.00;94.30;;;;;;5031034;28;20053;-73
2023/04/11 06:22:45;;;;;;;17.25;3.50;;;10.20;94.40;;;;;;5031054;28;20029;-73
2023/04/11 06:25:11;;;;;;;10.38;2.17;;;10.20;94.20;;;;;;5013278;28;20029;-72
2023/04/11 06:27:37;;;;;;;10.75;2.20;;;10.30;94.30;;;;;;5030439;28;20021;-73
2023/04/11 06:30:02;;;;;;;13.30;2.47;;;10.30;93.80;;;;;;5030753;28;20038;-73
2023/04/11 06:32:28;;;;;;;10.90;2.30;;;10.30;93.90;;;;;;5012644;28;20029;-74
2023/04/11 06:34:54;;;;;;;10.40;2.17;;;10.50;94.10;;;;;;5031250;28;20095;-75
2023/04/11 06:37:20;;;;;;;8.45;1.65;;;10.50;93.80;;;;;;5030723;28;20472;-74
2023/04/11 06:39:45;;;;;;;9.05;2.10;;;10.50;93.80;;;;;;5012354;28;20036;-74
2023/04/11 06:42:11;;;;;;;10.38;2.00;;;10.60;93.50;;;;;;5030917;28;20022;-73
2023/04/11 06:44:36;;;;;;;12.52;2.75;;;10.70;94.00;;;;;;5030742;28;20493;-74
2023/04/11 06:47:02;;;;;;;13.95;2.85;;;10.70;93.20;;;;;;5013203;28;20148;-74
2023/04/11 06:49:28;;;;;;;6.75;1.88;;;10.70;92.80;;;;;;5031103;28;20017;-74
2023/04/11 06:51:54;;;;;;;12.52;2.03;;;10.80;93.10;;;;;;5031371;28;20030;-73
2023/04/11 06:54:21;;;;;;;15.85;2.38;;;10.80;93.10;;;;;;5035838;28;20044;-73
2023/04/11 06:56:49;;;;;;;15.70;2.33;;;10.90;93.10;;;;;;5042177;28;20051;-72
2023/04/11 06:59:18;;;;;;;11.32;2.53;;;10.90;92.80;;;;;;5036769;28;20116;-74
2023/04/11 07:01:44;;;;;;;12.45;2.30;;;11.10;93.10;;;;;;5034002;28;20068;-74
2023/04/11 07:04:10;;;;;;;9.65;2.22;;;11.10;92.90;;;;;;5031534;28;20468;-74
2023/04/11 07:06:35;;;;;;;15.88;2.05;;;11.30;92.70;;;;;;5033147;28;20086;-76
2023/04/11 07:09:02;;;;;;;13.20;2.47;;;11.20;92.50;;;;;;5014395;28;20087;-73
2023/04/11 07:11:27;;;;;;;11.27;2.28;;;11.30;92.40;;;;;;5030888;28;20044;-75
2023/04/11 07:13:58;;;;;;;14.73;2.53;;;11.30;92.40;;;;;;5031752;28;20021;-74
2023/04/11 07:16:25;;;;;;;10.90;2.58;;;11.30;92.20;;;;;;5013128;28;20049;-74
2023/04/11 07:18:51;;;;;;;11.73;2.42;;;11.40;92.30;;;;;;5031072;28;20060;-74
2023/04/11 07:21:17;;;;;;;13.75;2.00;;;11.50;92.30;;;;;;5032256;28;20030;-74
2023/04/11 07:23:43;;;;;;;14.75;2.85;;;11.70;92.50;;;;;;5013251;28;20168;-75
2023/04/11 07:26:10;;;;;;;13.45;2.53;;;11.80;92.10;;;;;;5029934;28;20029;-74
2023/04/11 07:28:37;;;;;;;9.38;1.80;;;11.90;91.80;;;;;;5029986;28;20031;-73
2023/04/11 07:31:04;;;;;;;11.60;2.30;;;11.80;91.90;;;;;;5029332;28;20041;-73
2023/04/11 07:33:30;;;;;;;12.80;2.83;;;11.80;91.70;;;;;;5011753;28;20480;-74
2023/04/11 07:35:56;;;;;;;13.07;2.15;;;11.80;92.10;;;;;;5029271;28;20079;-74
2023/04/11 07:38:30;;;;;;;11.85;2.63;;;11.70;92.10;;;;;;5029257;28;20140;-74
2023/04/11 07:40:57;;;;;;;15.77;2.70;;;11.70;92.30;;;;;;5011034;28;20285;-76
2023/04/11 07:43:24;;;;;;;16.48;2.63;;;11.70;91.40;;;;;;5029354;28;20491;-73
2023/04/11 07:45:50;;;;;;;10.35;2.58;;;11.70;91.40;;;;;;5010931;28;20373;-74
2023/04/11 07:48:16;;;;;;;10.90;2.25;;;12.00;92.30;;;;;;5029929;28;20021;-73
2023/04/11 07:50:42;;;;;;;10.23;2.08;;;12.20;91.30;;;;;;5029103;28;20044;-74
2023/04/11 07:53:09;;;;;;;8.13;2.00;;;12.40;91.00;;;;;;5012030;28;20434;-75
2023/04/11 07:55:36;;;;;;;18.48;3.15;;;12.60;89.50;;;;;;5029284;28;20009;-75
2023/04/11 07:58:02;;;;;;;11.68;2.03;;;12.70;88.10;;;;;;5028573;28;20029;-75
2023/04/11 08:00:29;;;;;;;9.38;2.55;;;12.60;86.80;;;;;;5029406;28;20021;-73
2023/04/11 08:02:58;;;;;;;8.93;1.90;;;12.50;87.30;;;;;;5011066;28;20045;-74
2023/04/11 08:05:23;;;;;;;11.70;2.47;;;12.60;88.30;;;;;;5028852;28;20410;-73
2023/04/11 08:07:49;;;;;;;14.38;2.67;;;12.90;87.00;;;;;;5029530;28;20060;-75
2023/04/11 08:10:15;;;;;;;14.18;2.78;;;12.90;84.50;;;;;;5029143;28;20060;-74
2023/04/11 08:12:41;;;;;;;11.20;2.65;;;12.90;84.90;;;;;;5028770;28;20471;-74
2023/04/11 08:15:06;;;;;;;11.23;2.63;;;12.80;86.30;;;;;;5029498;28;20079;-75
2023/04/11 08:17:36;;;;;;;8.18;2.08;;;12.90;84.90;;;;;;5029334;28;20018;-74
2023/04/11 08:20:08;;;;;;;9.82;2.28;;;13.10;83.50;;;;;;5011132;28;20021;-75
2023/04/11 08:22:33;;;;;;;10.45;3.08;;;13.30;84.10;;;;;;5028890;28;20022;-76
2023/04/11 08:24:59;;;;;;;10.15;1.88;;;13.30;80.70;;;;;;5010928;28;20308;-75
2023/04/11 08:27:25;;;;;;;9.27;1.92;;;13.50;81.30;;;;;;5028719;28;20049;-76
2023/04/11 08:29:50;;;;;;;11.45;1.80;;;13.60;80.40;;;;;;5028600;28;20060;-75
2023/04/11 08:32:16;;;;;;;10.63;2.72;;;13.60;77.20;;;;;;5028721;28;20021;-75
2023/04/11 08:34:41;;;;;;;11.00;1.95;;;13.50;76.00;;;;;;5028492;28;20056;-75
2023/04/11 08:37:07;;;;;;;11.90;1.50;;;13.50;80.60;;;;;;5010600;28;20447;-74
2023/04/11 08:39:33;;;;;;;11.20;2.38;;;13.50;77.50;;;;;;5032705;28;20079;-75
2023/04/11 08:41:59;;;;;;;12.13;2.65;;;13.70;77.00;;;;;;5036234;28;20033;-76
2023/04/11 08:44:24;;;;;;;11.98;2.38;;;13.70;76.30;;;;;;5028671;28;20110;-76
2023/04/11 08:46:50;;;;;;;9.18;2.30;;;13.70;78.20;;;;;;5028190;28;20033;-76
2023/04/11 08:49:16;;;;;;;8.63;1.58;;;13.80;76.80;;;;;;5029086;28;20419;-76
2023/04/11 08:51:43;;;;;;;9.93;2.08;;;14.00;74.70;;;;;;5028347;28;20033;-75
2023/04/11 08:54:09;;;;;;;7.05;1.92;;;14.10;76.30;;;;;;5029078;28;20116;-78
2023/04/11 08:56:35;;;;;;;7.63;2.10;;;14.20;74.40;;;;;;5028231;28;20034;-76
2023/04/11 08:59:01;;;;;;;8.80;2.38;;;14.20;75.60;;;;;;5028283;28;20026;-76
2023/04/11 09:01:30;;;;;;;13.43;2.05;;;14.20;73.10;;;;;;5010568;28;20422;-75
2023/04/11 09:04:00;;;;;;;9.37;1.63;;;14.30;76.70;;;;;;5010796;28;20127;-75
2023/04/11 09:06:31;;;;;;;11.38;2.03;;;14.40;75.00;;;;;;5028607;28;20113;-75
2023/04/11 09:09:07;;;;;;;9.02;1.85;;;14.80;78.70;;;;;;5028065;28;20026;-76
2023/04/11 09:11:52;;;;;;;12.90;2.13;;;14.80;69.80;;;;;;5028301;28;20931;-74
2023/04/11 09:14:22;;;;;;;6.35;1.65;;;14.50;70.70;;;;;;5028413;28;20025;-74
2023/04/11 09:16:56;;;;;;;;;;;14.30;72.00;;;;;;5014827;28;20136;-77
2023/04/11 09:19:26;;;;;;;11.57;2.47;;;14.20;73.50;;;;;;5028895;28;19916;-75
2023/04/11 09:21:55;;;;;;;9.05;2.47;;;14.10;73.30;;;;;;5032202;28;20029;-75
2023/04/11 09:24:21;;;;;;;9.93;1.98;;;14.20;76.30;;;;;;5031032;28;20437;-74
2023/04/11 09:26:47;;;;;;;7.82;2.00;;;14.40;71.40;;;;;;5032249;28;20056;-74
2023/04/11 09:29:37;;;;;;;10.40;2.38;;;14.40;72.00;;;;;;5031421;28;20091;-74
2023/04/11 09:32:02;;;;;;;9.40;2.33;;;14.40;71.30;;;;;;5031785;28;20025;-75
2023/04/11 09:34:28;;;;;;;10.10;2.08;;;14.30;73.90;;;;;;5031757;28;20022;-75
2023/04/11 09:36:55;;;;;;;8.93;1.83;;;14.40;72.50;;;;;;5032142;28;20032;-75
2023/04/11 09:39:21;;;;;;;14.95;2.47;;;14.40;72.30;;;;;;5032976;28;20116;-74
2023/04/11 09:41:46;;;;;;;11.23;2.40;;;14.60;73.00;;;;;;5032298;28;20044;-74
2023/04/11 09:44:12;;;;;;;8.82;2.03;;;14.80;71.80;;;;;;5031915;28;20047;-75
2023/04/11 09:46:58;;;;;;;10.95;1.88;;;14.90;71.00;;;;;;5013903;28;20357;-74
2023/04/11 09:49:24;;;;;;;12.10;2.30;;;15.00;74.80;;;;;;5031682;28;20025;-74
2023/04/11 09:51:53;;;;;;;9.77;2.00;;;15.10;68.80;;;;;;5033673;28;20048;-74
2023/04/11 09:54:22;;;;;;;7.55;2.33;;;15.00;71.70;;;;;;5033780;28;20021;-75
2023/04/11 09:56:48;;;;;;;7.40;1.50;;;14.80;70.80;;;;;;5014212;28;20082;-74
2023/04/11 09:59:14;;;;;;;6.80;1.80;;;14.60;72.10;;;;;;5031459;28;20269;-75
2023/04/11 10:01:40;;;;;;;7.30;1.70;;;14.50;72.70;;;;;;5032343;28;20045;-74
2023/04/11 10:04:05;;;;;;;5.72;1.17;;;14.60;71.70;;;;;;5031944;28;20021;-75
2023/04/11 10:06:47;;;;;;;7.57;1.50;;;14.80;68.50;;;;;;5014084;28;20079;-75
2023/04/11 10:09:14;;;;;;;12.07;2.72;;;15.20;67.90;;;;;;5014119;28;20044;-74
2023/04/11 10:11:43;;;;;;;8.52;1.98;;;15.20;65.30;;;;;;5014924;28;20553;-75
2023/04/11 10:14:37;;;;;;;11.63;2.30;;;15.40;66.00;;;;;;5031685;28;20079;-74
2023/04/11 10:17:15;;;;;;;8.73;1.48;;;15.80;70.10;;;;;;5006189;28;20047;-75
2023/04/11 10:19:42;;;;;;;6.25;1.42;;;16.20;61.40;;;;;;5031153;28;20033;-75
2023/04/11 10:22:09;;;;;;;9.90;2.03;;;16.10;64.40;;;;;;5031803;28;20056;-75
2023/04/11 10:24:34;;;;;;;9.05;2.08;;;15.90;66.90;;;;;;5030714;28;20032;-75
2023/04/11 10:27:02;;;;;;;11.52;1.95;;;16.00;65.50;;;;;;5030515;28;20025;-75
2023/04/11 10:29:31;;;;;;;7.20;1.85;;;16.20;68.90;;;;;;5013426;28;20025;-75
2023/04/11 10:32:12;;;;;;;10.37;1.90;;;16.40;68.20;;;;;;5030798;28;20059;-76
2023/04/11 10:34:59;;;;;;;8.40;1.52;;;16.20;63.30;;;;;;5030962;28;20156;-75
2023/04/11 10:37:32;;;;;;;8.40;1.50;;;15.90;65.00;;;;;;5020835;28;20072;-75
2023/04/11 10:40:01;;;;;;;6.25;1.27;;;15.70;64.70;;;;;;5030743;28;20065;-75
2023/04/11 10:42:30;;;;;;;6.72;1.33;;;15.60;62.90;;;;;;5031016;28;20040;-74
2023/04/11 10:45:25;;;;;;;9.38;1.25;;;15.70;61.60;;;;;;5030149;28;20484;-74
2023/04/11 10:48:02;;;;;;;7.25;1.27;;;16.00;62.20;;;;;;5030408;28;20478;-79
2023/04/11 10:50:30;;;;;;;6.30;1.30;;;16.30;57.60;;;;;;5030200;28;20061;-75
2023/04/11 10:53:02;;;;;;;7.05;1.13;;;16.40;62.20;;;;;;5030996;28;20124;-75
2023/04/11 10:55:29;;;;;;;5.60;1.30;;;16.40;63.20;;;;;;5031023;28;20026;-75
2023/04/11 10:58:06;;;;;;;5.00;1.15;;;16.00;54.70;;;;;;5030912;28;20031;-74
2023/04/11 11:00:48;;;;;;;8.75;1.30;;;15.80;57.50;;;;;;5030222;28;20037;-74
2023/04/11 11:03:18;;;;;;;4.45;0.90;;;15.60;55.90;;;;;;5019613;28;20065;-76
2023/04/11 11:05:45;;;;;;;6.97;1.67;;;15.40;56.40;;;;;;5030364;28;20022;-76
2023/04/11 11:08:11;;;;;;;5.50;1.27;;;15.30;54.90;;;;;;5029936;28;20025;-76
2023/04/11 11:10:47;;;;;;;7.15;1.52;;;15.40;57.70;;;;;;5012468;28;20087;-74
2023/04/11 11:13:15;;;;;;;8.57;2.08;;;15.60;57.80;;;;;;5027634;28;20025;-75
2023/04/11 11:15:50;;;;;;;6.63;1.48;;;15.70;59.50;;;;;;5030621;28;20032;-75
2023/04/11 11:18:16;;;;;;;5.85;1.23;;;15.90;56.50;;;;;;5029822;28;20531;-74
2023/04/11 11:20:42;;;;;;;6.68;1.20;;;16.10;55.20;;;;;;5012518;28;20018;-75
2023/04/11 11:23:10;;;;;;;6.85;1.33;;;16.20;55.00;;;;;;5012117;28;20014;-75
2023/04/11 11:25:36;;;;;;;8.50;1.80;;;16.30;56.60;;;;;;5029912;28;20040;-74
2023/04/11 11:28:08;;;;;;;6.25;1.38;;;16.60;55.70;;;;;;5029112;28;20025;-74
2023/04/11 11:30:35;;;;;;;6.50;1.33;;;16.80;54.70;;;;;;5028669;28;20455;-75
2023/04/11 11:33:18;;;;;;;6.72;1.40;;;17.10;55.60;;;;;;5011921;28;20036;-75
2023/04/11 11:35:55;;;;;;;7.65;1.67;;;17.30;57.80;;;;;;5009480;28;20463;-74
2023/04/11 11:38:24;;;;;;;7.43;1.63;;;17.40;53.60;;;;;;5022983;28;20076;-75
2023/04/11 11:40:51;;;;;;;8.47;1.87;;;17.40;55.00;;;;;;5042499;28;20079;-75
2023/04/11 11:43:17;;;;;;;7.82;1.60;;;17.30;60.30;;;;;;5034251;28;20397;-74
2023/04/11 11:45:43;;;;;;;7.53;1.77;;;17.40;52.40;;;;;;5028622;28;20486;-76
2023/04/11 11:48:20;;;;;;;6.55;1.35;;;17.50;56.70;;;;;;5010172;28;20021;-76
2023/04/11 11:50:53;;;;;;;6.90;1.85;;;17.40;52.10;;;;;;5028019;28;20033;-74
2023/04/11 11:53:19;;;;;;;8.65;1.58;;;17.30;54.10;;;;;;5028067;28;20022;-75
2023/04/11 11:55:44;;;;;;;7.45;1.67;;;17.30;55.00;;;;;;5028104;28;20148;-77
2023/04/11 11:58:10;;;;;;;8.48;1.90;;;17.50;56.90;;;;;;5027363;28;20029;-75
2023/04/11 12:00:38;;;;;;;5.88;1.42;;;17.70;59.30;;;;;;5027869;28;20025;-75
2023/04/11 12:03:05;;;;;;;8.27;1.75;;;17.80;52.10;;;;;;5028525;28;20128;-75
2023/04/11 12:05:32;;;;;;;8.25;1.77;;;17.70;52.50;;;;;;5028686;28;20049;-76
2023/04/11 12:08:00;;;;;;;5.63;1.58;;;17.50;52.80;;;;;;5029169;28;20485;-75
2023/04/11 12:10:35;;;;;;;7.40;1.75;;;17.40;55.70;;;;;;5029122;28;20115;-76
2023/04/11 12:13:01;;;;;;;4.57;1.50;;;17.50;55.70;;;;;;5029138;28;20457;-77
2023/04/11 12:15:26;;;;;;;7.43;1.52;;;17.70;53.60;;;;;;5029678;28;20025;-76
2023/04/11 12:17:53;;;;;;;7.60;1.35;;;17.70;50.60;;;;;;5029336;28;20029;-77
2023/04/11 12:20:23;;;;;;;5.47;1.45;;;17.50;52.90;;;;;;5029010;28;20017;-76
2023/04/11 12:22:49;;;;;;;6.63;1.83;;;17.40;52.10;;;;;;5030255;28;20022;-76
2023/04/11 12:25:15;;;;;;;14.15;1.70;;;17.50;51.00;;;;;;5031012;28;20083;-75
2023/04/11 12:27:45;;;;;;;5.13;1.48;;;17.40;51.60;;;;;;5014611;28;20063;-76
2023/04/11 12:30:13;;;;;;;7.17;1.50;;;17.30;50.50;;;;;;5011132;28;20072;-77
2023/04/11 12:32:39;;;;;;;9.15;2.08;;;17.30;53.10;;;;;;5011113;28;20272;-75
2023/04/11 12:35:05;;;;;;;7.40;1.52;;;17.10;50.70;;;;;;5028544;28;20516;-76
2023/04/11 12:37:33;;;;;;;8.35;1.85;;;17.00;51.80;;;;;;5028930;28;20427;-76
2023/04/11 12:39:59;;;;;;;6.72;1.67;;;17.00;50.60;;;;;;5028483;28;20476;-76
2023/04/11 12:42:24;;;;;;;6.68;1.77;;;17.00;52.30;;;;;;5011808;28;20033;-74